sensor_id;sensor_type;location;lat;lon;timestamp;pressure;altitude;pressure_sealevel;temperature;humidity
80397;BME280;69721;55.894;-3.052;2023-06-04T00:01:04;102242.58;;;15.36;33.46
80397;BME280;69721;55.894;-3.052;2023-06-04T00:03:30;102244.65;;;16.18;32.44
80397;BME280;69721;55.894;-3.052;2023-06-04T00:05:55;102244.61;;;16.59;31.68
80397;BME280;69721;55.894;-3.052;2023-06-04T00:08:20;102239.91;;;16.49;31.30
80397;BME280;69721;55.894;-3.052;2023-06-04T00:10:46;102242.66;;;16.93;31.39
80397;BME280;69721;55.894;-3.052;2023-06-04T00:13:11;102242.74;;;16.41;31.56
80397;BME280;69721;55.894;-3.052;2023-06-04T00:15:37;102243.47;;;16.97;31.28
80397;BME280;69721;55.894;-3.052;2023-06-04T00:18:02;102241.34;;;16.14;32.00
80397;BME280;69721;55.894;-3.052;2023-06-04T00:20:28;102242.63;;;16.54;31.70
80397;BME280;69721;55.894;-3.052;2023-06-04T00:22:53;102243.90;;;15.85;32.67
80397;BME280;69721;55.894;-3.052;2023-06-04T00:25:18;102243.96;;;16.34;32.81
80397;BME280;69721;55.894;-3.052;2023-06-04T00:27:44;102249.61;;;16.01;32.75
80397;BME280;69721;55.894;-3.052;2023-06-04T00:30:10;102246.78;;;15.79;32.60
80397;BME280;69721;55.894;-3.052;2023-06-04T00:32:35;102247.55;;;16.19;32.74
80397;BME280;69721;55.894;-3.052;2023-06-04T00:35:00;102247.61;;;14.87;34.71
80397;BME280;69721;55.894;-3.052;2023-06-04T00:37:27;102244.17;;;15.36;34.00
80397;BME280;69721;55.894;-3.052;2023-06-04T00:39:51;102246.03;;;14.85;35.42
80397;BME280;69721;55.894;-3.052;2023-06-04T00:42:16;102243.92;;;14.85;35.29
80397;BME280;69721;55.894;-3.052;2023-06-04T00:44:42;102244.00;;;14.31;35.99
80397;BME280;69721;55.894;-3.052;2023-06-04T00:47:07;102244.70;;;14.40;36.02
80397;BME280;69721;55.894;-3.052;2023-06-04T00:49:33;102248.49;;;15.29;35.75
80397;BME280;69721;55.894;-3.052;2023-06-04T00:51:58;102247.41;;;14.85;35.54
80397;BME280;69721;55.894;-3.052;2023-06-04T00:54:24;102244.93;;;13.76;37.33
80397;BME280;69721;55.894;-3.052;2023-06-04T00:56:49;102245.12;;;15.33;35.61
80397;BME280;69721;55.894;-3.052;2023-06-04T00:59:15;102241.03;;;15.86;34.76
80397;BME280;69721;55.894;-3.052;2023-06-04T01:01:47;102240.68;;;15.66;34.58
80397;BME280;69721;55.894;-3.052;2023-06-04T01:04:08;102240.74;;;15.99;34.39
80397;BME280;69721;55.894;-3.052;2023-06-04T01:06:38;102245.62;;;15.97;34.07
80397;BME280;69721;55.894;-3.052;2023-06-04T01:08:58;102243.21;;;15.76;34.66
80397;BME280;69721;55.894;-3.052;2023-06-04T01:11:32;102242.87;;;15.70;34.88
80397;BME280;69721;55.894;-3.052;2023-06-04T01:13:48;102240.68;;;15.56;35.27
80397;BME280;69721;55.894;-3.052;2023-06-04T01:16:14;102244.87;;;14.78;36.24
80397;BME280;69721;55.894;-3.052;2023-06-04T01:18:39;102247.22;;;15.01;36.11
80397;BME280;69721;55.894;-3.052;2023-06-04T01:21:07;102245.03;;;13.76;37.76
80397;BME280;69721;55.894;-3.052;2023-06-04T01:23:35;102247.82;;;14.65;36.94
80397;BME280;69721;55.894;-3.052;2023-06-04T01:25:55;102252.35;;;15.17;36.31
80397;BME280;69721;55.894;-3.052;2023-06-04T01:28:20;102250.05;;;15.35;36.07
80397;BME280;69721;55.894;-3.052;2023-06-04T01:30:46;102250.11;;;15.50;35.54
80397;BME280;69721;55.894;-3.052;2023-06-04T01:33:12;102249.41;;;15.98;35.20
80397;BME280;69721;55.894;-3.052;2023-06-04T01:35:36;102251.15;;;15.83;35.15
80397;BME280;69721;55.894;-3.052;2023-06-04T01:38:02;102251.56;;;15.30;35.59
80397;BME280;69721;55.894;-3.052;2023-06-04T01:40:27;102249.60;;;14.87;36.59
80397;BME280;69721;55.894;-3.052;2023-06-04T01:42:53;102247.71;;;14.19;37.75
80397;BME280;69721;55.894;-3.052;2023-06-04T01:45:20;102247.86;;;15.39;36.07
80397;BME280;69721;55.894;-3.052;2023-06-04T01:47:45;102245.13;;;15.46;35.84
80397;BME280;69721;55.894;-3.052;2023-06-04T01:50:10;102244.57;;;15.13;36.35
80397;BME280;69721;55.894;-3.052;2023-06-04T01:52:35;102243.99;;;15.48;35.98
80397;BME280;69721;55.894;-3.052;2023-06-04T01:55:01;102243.32;;;15.68;36.06
80397;BME280;69721;55.894;-3.052;2023-06-04T01:57:26;102244.56;;;15.24;36.58
80397;BME280;69721;55.894;-3.052;2023-06-04T01:59:52;102242.71;;;14.91;36.89
80397;BME280;69721;55.894;-3.052;2023-06-04T02:02:17;102239.77;;;15.01;37.20
80397;BME280;69721;55.894;-3.052;2023-06-04T02:04:42;102241.30;;;15.30;36.68
80397;BME280;69721;55.894;-3.052;2023-06-04T02:07:08;102243.33;;;15.61;36.38
80397;BME280;69721;55.894;-3.052;2023-06-04T02:09:33;102244.71;;;15.62;36.32
80397;BME280;69721;55.894;-3.052;2023-06-04T02:11:59;102248.86;;;15.40;36.61
80397;BME280;69721;55.894;-3.052;2023-06-04T02:14:24;102249.60;;;15.32;36.43
80397;BME280;69721;55.894;-3.052;2023-06-04T02:16:50;102252.31;;;15.26;36.89
80397;BME280;69721;55.894;-3.052;2023-06-04T02:19:15;102255.14;;;15.29;36.79
80397;BME280;69721;55.894;-3.052;2023-06-04T02:21:40;102256.48;;;15.22;37.02
80397;BME280;69721;55.894;-3.052;2023-06-04T02:24:06;102254.46;;;14.64;37.55
80397;BME280;69721;55.894;-3.052;2023-06-04T02:26:31;102257.60;;;14.70;37.56
80397;BME280;69721;55.894;-3.052;2023-06-04T02:28:57;102261.04;;;15.32;37.08
80397;BME280;69721;55.894;-3.052;2023-06-04T02:31:22;102260.48;;;15.46;36.69
80397;BME280;69721;55.894;-3.052;2023-06-04T02:33:47;102260.70;;;15.09;37.16
80397;BME280;69721;55.894;-3.052;2023-06-04T02:36:12;102260.78;;;15.00;37.36
80397;BME280;69721;55.894;-3.052;2023-06-04T02:38:38;102258.72;;;14.93;37.47
80397;BME280;69721;55.894;-3.052;2023-06-04T02:41:03;102259.00;;;15.14;37.14
80397;BME280;69721;55.894;-3.052;2023-06-04T02:43:29;102259.82;;;15.14;37.33
80397;BME280;69721;55.894;-3.052;2023-06-04T02:45:54;102262.19;;;14.50;37.75
80397;BME280;69721;55.894;-3.052;2023-06-04T02:48:20;102261.82;;;14.30;38.01
80397;BME280;69721;55.894;-3.052;2023-06-04T02:50:45;102261.23;;;14.83;37.65
80397;BME280;69721;55.894;-3.052;2023-06-04T02:53:11;102259.01;;;14.74;37.14
80397;BME280;69721;55.894;-3.052;2023-06-04T02:55:36;102260.41;;;14.79;37.18
80397;BME280;69721;55.894;-3.052;2023-06-04T02:58:02;102263.15;;;14.34;38.25
80397;BME280;69721;55.894;-3.052;2023-06-04T03:00:28;102262.40;;;14.60;37.73
80397;BME280;69721;55.894;-3.052;2023-06-04T03:02:53;102260.93;;;14.38;37.42
80397;BME280;69721;55.894;-3.052;2023-06-04T03:05:18;102259.66;;;14.69;37.30
80397;BME280;69721;55.894;-3.052;2023-06-04T03:07:45;102258.86;;;14.36;37.67
80397;BME280;69721;55.894;-3.052;2023-06-04T03:10:10;102260.18;;;14.36;38.07
80397;BME280;69721;55.894;-3.052;2023-06-04T03:12:35;102258.29;;;14.56;37.64
80397;BME280;69721;55.894;-3.052;2023-06-04T03:15:00;102260.37;;;14.18;37.49
80397;BME280;69721;55.894;-3.052;2023-06-04T03:17:26;102260.89;;;14.21;37.11
80397;BME280;69721;55.894;-3.052;2023-06-04T03:19:51;102260.82;;;14.14;36.80
80397;BME280;69721;55.894;-3.052;2023-06-04T03:22:17;102259.02;;;14.14;36.89
80397;BME280;69721;55.894;-3.052;2023-06-04T03:24:42;102261.13;;;14.27;36.81
80397;BME280;69721;55.894;-3.052;2023-06-04T03:27:09;102258.05;;;14.12;37.05
80397;BME280;69721;55.894;-3.052;2023-06-04T03:29:34;102254.32;;;14.21;37.04
80397;BME280;69721;55.894;-3.052;2023-06-04T03:31:59;102255.06;;;14.33;36.82
80397;BME280;69721;55.894;-3.052;2023-06-04T03:34:24;102254.97;;;14.48;36.35
80397;BME280;69721;55.894;-3.052;2023-06-04T03:36:49;102257.65;;;14.30;36.15
80397;BME280;69721;55.894;-3.052;2023-06-04T03:39:15;102257.26;;;14.30;37.01
80397;BME280;69721;55.894;-3.052;2023-06-04T03:41:41;102256.41;;;14.32;36.22
80397;BME280;69721;55.894;-3.052;2023-06-04T03:44:06;102257.97;;;14.32;36.65
80397;BME280;69721;55.894;-3.052;2023-06-04T03:46:31;102257.81;;;14.15;36.53
80397;BME280;69721;55.894;-3.052;2023-06-04T03:48:57;102255.98;;;13.95;36.88
80397;BME280;69721;55.894;-3.052;2023-06-04T03:51:22;102254.23;;;14.33;36.59
80397;BME280;69721;55.894;-3.052;2023-06-04T03:53:48;102257.26;;;14.46;36.93
80397;BME280;69721;55.894;-3.052;2023-06-04T03:56:13;102256.38;;;14.30;37.77
80397;BME280;69721;55.894;-3.052;2023-06-04T03:58:39;102260.67;;;14.01;37.93
80397;BME280;69721;55.894;-3.052;2023-06-04T04:01:04;102262.67;;;14.49;37.93
80397;BME280;69721;55.894;-3.052;2023-06-04T04:03:31;102262.69;;;13.95;38.44
80397;BME280;69721;55.894;-3.052;2023-06-04T04:05:56;102262.36;;;14.43;38.06
80397;BME280;69721;55.894;-3.052;2023-06-04T04:08:21;102264.34;;;14.84;37.88
80397;BME280;69721;55.894;-3.052;2023-06-04T04:10:47;102263.47;;;14.43;37.94
80397;BME280;69721;55.894;-3.052;2023-06-04T04:13:12;102264.70;;;14.58;37.98
80397;BME280;69721;55.894;-3.052;2023-06-04T04:15:38;102266.67;;;14.20;38.46
80397;BME280;69721;55.894;-3.052;2023-06-04T04:18:03;102266.77;;;14.49;38.81
80397;BME280;69721;55.894;-3.052;2023-06-04T04:20:29;102265.41;;;14.59;38.72
80397;BME280;69721;55.894;-3.052;2023-06-04T04:22:54;102266.99;;;14.62;38.63
80397;BME280;69721;55.894;-3.052;2023-06-04T04:25:20;102267.95;;;14.48;38.47
80397;BME280;69721;55.894;-3.052;2023-06-04T04:27:46;102267.50;;;14.64;38.45
80397;BME280;69721;55.894;-3.052;2023-06-04T04:30:12;102268.66;;;14.65;38.41
80397;BME280;69721;55.894;-3.052;2023-06-04T04:32:37;102273.63;;;13.97;38.82
80397;BME280;69721;55.894;-3.052;2023-06-04T04:35:03;102273.34;;;13.39;39.40
80397;BME280;69721;55.894;-3.052;2023-06-04T04:37:28;102273.83;;;13.69;39.15
80397;BME280;69721;55.894;-3.052;2023-06-04T04:39:53;102271.85;;;13.68;38.82
80397;BME280;69721;55.894;-3.052;2023-06-04T04:42:19;102267.76;;;13.95;38.33
80397;BME280;69721;55.894;-3.052;2023-06-04T04:44:45;102269.42;;;13.08;38.78
80397;BME280;69721;55.894;-3.052;2023-06-04T04:47:10;102269.47;;;12.90;39.12
80397;BME280;69721;55.894;-3.052;2023-06-04T04:49:36;102268.08;;;12.41;40.28
80397;BME280;69721;55.894;-3.052;2023-06-04T04:52:01;102268.38;;;12.44;40.09
80397;BME280;69721;55.894;-3.052;2023-06-04T04:54:27;102265.97;;;12.35;40.07
80397;BME280;69721;55.894;-3.052;2023-06-04T04:56:52;102263.62;;;12.82;39.66
80397;BME280;69721;55.894;-3.052;2023-06-04T04:59:18;102261.81;;;12.97;39.44
80397;BME280;69721;55.894;-3.052;2023-06-04T05:01:43;102265.15;;;13.13;39.24
80397;BME280;69721;55.894;-3.052;2023-06-04T05:04:09;102268.46;;;12.41;40.34
80397;BME280;69721;55.894;-3.052;2023-06-04T05:06:34;102266.19;;;12.61;39.91
80397;BME280;69721;55.894;-3.052;2023-06-04T05:09:00;102262.53;;;13.18;38.77
80397;BME280;69721;55.894;-3.052;2023-06-04T05:11:26;102263.62;;;13.23;38.77
80397;BME280;69721;55.894;-3.052;2023-06-04T05:13:51;102265.51;;;13.35;38.78
80397;BME280;69721;55.894;-3.052;2023-06-04T05:16:17;102265.64;;;12.90;39.26
80397;BME280;69721;55.894;-3.052;2023-06-04T05:18:42;102261.59;;;13.49;38.99
80397;BME280;69721;55.894;-3.052;2023-06-04T05:21:08;102258.69;;;13.85;38.14
80397;BME280;69721;55.894;-3.052;2023-06-04T05:23:33;102258.68;;;13.61;38.24
80397;BME280;69721;55.894;-3.052;2023-06-04T05:25:58;102253.62;;;13.30;38.35
80397;BME280;69721;55.894;-3.052;2023-06-04T05:28:23;102254.80;;;13.73;37.93
80397;BME280;69721;55.894;-3.052;2023-06-04T05:30:49;102255.28;;;14.16;37.86
80397;BME280;69721;55.894;-3.052;2023-06-04T05:33:14;102258.17;;;13.71;37.88
80397;BME280;69721;55.894;-3.052;2023-06-04T05:35:40;102260.49;;;14.03;37.77
80397;BME280;69721;55.894;-3.052;2023-06-04T05:38:06;102259.72;;;14.13;37.30
80397;BME280;69721;55.894;-3.052;2023-06-04T05:40:31;102256.58;;;14.32;36.87
80397;BME280;69721;55.894;-3.052;2023-06-04T05:42:56;102257.05;;;14.76;36.52
80397;BME280;69721;55.894;-3.052;2023-06-04T05:45:22;102254.49;;;14.96;36.60
80397;BME280;69721;55.894;-3.052;2023-06-04T05:47:48;102255.30;;;14.59;36.74
80397;BME280;69721;55.894;-3.052;2023-06-04T05:50:14;102257.04;;;14.43;37.31
80397;BME280;69721;55.894;-3.052;2023-06-04T05:52:40;102257.26;;;14.35;37.31
80397;BME280;69721;55.894;-3.052;2023-06-04T05:55:05;102258.62;;;14.63;37.23
80397;BME280;69721;55.894;-3.052;2023-06-04T05:57:30;102256.65;;;15.05;36.78
80397;BME280;69721;55.894;-3.052;2023-06-04T05:59:56;102260.58;;;14.74;37.05
80397;BME280;69721;55.894;-3.052;2023-06-04T06:02:21;102259.67;;;15.24;37.01
80397;BME280;69721;55.894;-3.052;2023-06-04T06:04:47;102255.04;;;15.11;37.32
80397;BME280;69721;55.894;-3.052;2023-06-04T06:07:12;102255.56;;;14.86;37.73
80397;BME280;69721;55.894;-3.052;2023-06-04T06:09:38;102252.45;;;15.70;36.76
80397;BME280;69721;55.894;-3.052;2023-06-04T06:12:04;102253.38;;;15.40;37.36
80397;BME280;69721;55.894;-3.052;2023-06-04T06:14:29;102255.73;;;15.16;38.04
80397;BME280;69721;55.894;-3.052;2023-06-04T06:16:54;102255.51;;;15.50;38.25
80397;BME280;69721;55.894;-3.052;2023-06-04T06:19:19;102257.63;;;14.96;39.19
80397;BME280;69721;55.894;-3.052;2023-06-04T06:21:45;102255.33;;;15.68;38.11
80397;BME280;69721;55.894;-3.052;2023-06-04T06:24:11;102260.54;;;14.24;40.49
80397;BME280;69721;55.894;-3.052;2023-06-04T06:26:36;102261.01;;;14.52;41.98
80397;BME280;69721;55.894;-3.052;2023-06-04T06:29:01;102258.18;;;14.75;41.69
80397;BME280;69721;55.894;-3.052;2023-06-04T06:31:27;102260.87;;;15.22;41.63
80397;BME280;69721;55.894;-3.052;2023-06-04T06:33:53;102256.86;;;13.76;42.39
80397;BME280;69721;55.894;-3.052;2023-06-04T06:36:19;102265.24;;;15.47;41.22
80397;BME280;69721;55.894;-3.052;2023-06-04T06:38:45;102263.31;;;13.79;43.18
80397;BME280;69721;55.894;-3.052;2023-06-04T06:41:11;102261.79;;;14.16;43.15
80397;BME280;69721;55.894;-3.052;2023-06-04T06:43:36;102264.26;;;13.88;44.04
80397;BME280;69721;55.894;-3.052;2023-06-04T06:46:01;102259.47;;;15.12;42.18
80397;BME280;69721;55.894;-3.052;2023-06-04T06:48:26;102261.65;;;13.90;43.74
80397;BME280;69721;55.894;-3.052;2023-06-04T06:50:53;102261.10;;;14.70;42.26
80397;BME280;69721;55.894;-3.052;2023-06-04T06:53:17;102264.78;;;13.54;44.96
80397;BME280;69721;55.894;-3.052;2023-06-04T06:55:48;102260.03;;;14.76;43.07
80397;BME280;69721;55.894;-3.052;2023-06-04T06:58:08;102258.07;;;15.23;42.24
80397;BME280;69721;55.894;-3.052;2023-06-04T07:00:34;102258.00;;;14.53;43.90
80397;BME280;69721;55.894;-3.052;2023-06-04T07:03:00;102258.75;;;14.65;44.17
80397;BME280;69721;55.894;-3.052;2023-06-04T07:05:26;102260.82;;;12.56;47.41
80397;BME280;69721;55.894;-3.052;2023-06-04T07:07:51;102254.95;;;14.26;44.48
80397;BME280;69721;55.894;-3.052;2023-06-04T07:10:17;102256.81;;;14.47;44.27
80397;BME280;69721;55.894;-3.052;2023-06-04T07:12:43;102260.04;;;15.52;43.02
80397;BME280;69721;55.894;-3.052;2023-06-04T07:15:08;102260.75;;;13.53;45.89
80397;BME280;69721;55.894;-3.052;2023-06-04T07:17:34;102256.20;;;14.38;44.52
80397;BME280;69721;55.894;-3.052;2023-06-04T07:19:59;102253.35;;;14.40;44.62
80397;BME280;69721;55.894;-3.052;2023-06-04T07:22:25;102252.85;;;14.57;44.56
80397;BME280;69721;55.894;-3.052;2023-06-04T07:24:50;102254.83;;;14.76;43.76
80397;BME280;69721;55.894;-3.052;2023-06-04T07:27:15;102255.13;;;15.97;42.01
80397;BME280;69721;55.894;-3.052;2023-06-04T07:29:43;102257.42;;;16.06;41.54
80397;BME280;69721;55.894;-3.052;2023-06-04T07:32:06;102260.29;;;16.15;40.86
80397;BME280;69721;55.894;-3.052;2023-06-04T07:34:31;102262.33;;;17.00;40.55
80397;BME280;69721;55.894;-3.052;2023-06-04T07:36:57;102252.14;;;17.87;38.17
80397;BME280;69721;55.894;-3.052;2023-06-04T07:39:22;102253.37;;;19.36;35.65
80397;BME280;69721;55.894;-3.052;2023-06-04T07:41:47;102254.62;;;19.95;34.69
80397;BME280;69721;55.894;-3.052;2023-06-04T07:44:13;102252.76;;;19.19;35.24
80397;BME280;69721;55.894;-3.052;2023-06-04T07:46:38;102247.90;;;20.27;34.22
80397;BME280;69721;55.894;-3.052;2023-06-04T07:49:03;102254.78;;;17.82;37.37
80397;BME280;69721;55.894;-3.052;2023-06-04T07:51:29;102253.54;;;18.96;34.81
80397;BME280;69721;55.894;-3.052;2023-06-04T07:53:54;102256.02;;;19.28;35.58
80397;BME280;69721;55.894;-3.052;2023-06-04T07:56:19;102257.82;;;17.51;37.81
80397;BME280;69721;55.894;-3.052;2023-06-04T07:58:44;102257.20;;;17.91;37.20
80397;BME280;69721;55.894;-3.052;2023-06-04T08:01:10;102260.11;;;16.18;39.47
80397;BME280;69721;55.894;-3.052;2023-06-04T08:03:35;102256.45;;;18.19;36.12
80397;BME280;69721;55.894;-3.052;2023-06-04T08:06:01;102261.01;;;17.99;37.97
80397;BME280;69721;55.894;-3.052;2023-06-04T08:08:26;102259.07;;;17.81;37.33
80397;BME280;69721;55.894;-3.052;2023-06-04T08:10:52;102264.18;;;16.23;39.21
80397;BME280;69721;55.894;-3.052;2023-06-04T08:13:18;102258.03;;;16.07;40.15
80397;BME280;69721;55.894;-3.052;2023-06-04T08:15:43;102256.02;;;16.88;39.53
80397;BME280;69721;55.894;-3.052;2023-06-04T08:18:09;102250.37;;;17.89;37.07
80397;BME280;69721;55.894;-3.052;2023-06-04T08:20:34;102258.48;;;15.48;40.67
80397;BME280;69721;55.894;-3.052;2023-06-04T08:22:59;102252.37;;;17.24;38.01
80397;BME280;69721;55.894;-3.052;2023-06-04T08:25:25;102254.33;;;17.07;38.02
80397;BME280;69721;55.894;-3.052;2023-06-04T08:27:50;102250.68;;;17.37;37.67
80397;BME280;69721;55.894;-3.052;2023-06-04T08:30:15;102250.36;;;17.74;36.63
80397;BME280;69721;55.894;-3.052;2023-06-04T08:32:41;102243.90;;;18.35;36.51
80397;BME280;69721;55.894;-3.052;2023-06-04T08:35:07;102246.74;;;17.72;36.74
80397;BME280;69721;55.894;-3.052;2023-06-04T08:37:31;102251.77;;;17.20;37.73
80397;BME280;69721;55.894;-3.052;2023-06-04T08:39:57;102248.68;;;19.01;36.65
80397;BME280;69721;55.894;-3.052;2023-06-04T08:42:29;102257.39;;;15.64;39.53
80397;BME280;69721;55.894;-3.052;2023-06-04T08:44:50;102248.49;;;17.37;37.85
80397;BME280;69721;55.894;-3.052;2023-06-04T08:47:15;102248.32;;;17.49;36.35
80397;BME280;69721;55.894;-3.052;2023-06-04T08:49:41;102244.59;;;18.73;36.52
80397;BME280;69721;55.894;-3.052;2023-06-04T08:52:05;102244.07;;;17.64;36.77
80397;BME280;69721;55.894;-3.052;2023-06-04T08:54:30;102241.43;;;17.60;37.03
80397;BME280;69721;55.894;-3.052;2023-06-04T08:56:56;102234.92;;;18.86;35.19
80397;BME280;69721;55.894;-3.052;2023-06-04T08:59:21;102233.26;;;17.96;36.91
80397;BME280;69721;55.894;-3.052;2023-06-04T09:01:46;102232.37;;;18.81;37.43
80397;BME280;69721;55.894;-3.052;2023-06-04T09:04:11;102240.14;;;15.15;41.49
80397;BME280;69721;55.894;-3.052;2023-06-04T09:06:37;102233.10;;;16.70;39.50
80397;BME280;69721;55.894;-3.052;2023-06-04T09:09:04;102239.73;;;15.46;40.85
80397;BME280;69721;55.894;-3.052;2023-06-04T09:11:35;102234.53;;;15.23;41.74
80397;BME280;69721;55.894;-3.052;2023-06-04T09:13:53;102235.41;;;15.44;41.34
80397;BME280;69721;55.894;-3.052;2023-06-04T09:16:17;102225.22;;;18.35;37.72
80397;BME280;69721;55.894;-3.052;2023-06-04T09:18:45;102229.20;;;17.55;38.35
80397;BME280;69721;55.894;-3.052;2023-06-04T09:21:09;102225.41;;;17.06;39.59
80397;BME280;69721;55.894;-3.052;2023-06-04T09:23:36;102234.28;;;16.41;41.31
80397;BME280;69721;55.894;-3.052;2023-06-04T09:26:07;102234.23;;;16.41;41.20
80397;BME280;69721;55.894;-3.052;2023-06-04T09:28:29;102227.95;;;18.49;38.90
80397;BME280;69721;55.894;-3.052;2023-06-04T09:30:51;102225.38;;;20.14;36.36
80397;BME280;69721;55.894;-3.052;2023-06-04T09:33:16;102228.96;;;20.65;34.21
80397;BME280;69721;55.894;-3.052;2023-06-04T09:35:41;102229.31;;;19.79;36.75
80397;BME280;69721;55.894;-3.052;2023-06-04T09:38:06;102230.57;;;19.54;36.33
80397;BME280;69721;55.894;-3.052;2023-06-04T09:40:37;102226.42;;;20.38;34.23
80397;BME280;69721;55.894;-3.052;2023-06-04T09:42:58;102227.94;;;20.07;34.89
80397;BME280;69721;55.894;-3.052;2023-06-04T09:45:27;102226.32;;;20.94;35.53
80397;BME280;69721;55.894;-3.052;2023-06-04T09:47:49;102227.31;;;20.55;34.39
80397;BME280;69721;55.894;-3.052;2023-06-04T09:50:24;102227.51;;;20.51;35.01
80397;BME280;69721;55.894;-3.052;2023-06-04T09:52:40;102219.02;;;21.47;33.68
80397;BME280;69721;55.894;-3.052;2023-06-04T09:55:16;102225.00;;;20.16;34.01
80397;BME280;69721;55.894;-3.052;2023-06-04T09:57:31;102226.03;;;18.43;38.20
80397;BME280;69721;55.894;-3.052;2023-06-04T09:59:57;102224.49;;;19.72;36.29
80397;BME280;69721;55.894;-3.052;2023-06-04T10:02:22;102223.46;;;20.83;35.52
80397;BME280;69721;55.894;-3.052;2023-06-04T10:04:49;102219.82;;;21.90;33.03
80397;BME280;69721;55.894;-3.052;2023-06-04T10:07:13;102218.32;;;21.92;33.48
80397;BME280;69721;55.894;-3.052;2023-06-04T10:09:39;102215.06;;;22.32;31.65
80397;BME280;69721;55.894;-3.052;2023-06-04T10:12:03;102226.08;;;18.02;38.26
80397;BME280;69721;55.894;-3.052;2023-06-04T10:14:35;102226.44;;;18.97;40.70
80397;BME280;69721;55.894;-3.052;2023-06-04T10:16:54;102224.06;;;18.24;40.59
80397;BME280;69721;55.894;-3.052;2023-06-04T10:19:19;102233.90;;;16.97;42.54
80397;BME280;69721;55.894;-3.052;2023-06-04T10:21:44;102233.71;;;15.31;47.18
80397;BME280;69721;55.894;-3.052;2023-06-04T10:24:09;102229.85;;;15.65;47.02
80397;BME280;69721;55.894;-3.052;2023-06-04T10:26:35;102230.38;;;17.76;44.45
80397;BME280;69721;55.894;-3.052;2023-06-04T10:29:01;102229.90;;;16.25;44.21
80397;BME280;69721;55.894;-3.052;2023-06-04T10:31:26;102231.99;;;15.40;47.01
80397;BME280;69721;55.894;-3.052;2023-06-04T10:33:54;102237.10;;;15.22;48.30
80397;BME280;69721;55.894;-3.052;2023-06-04T10:36:17;102233.77;;;15.52;47.95
80397;BME280;69721;55.894;-3.052;2023-06-04T10:38:45;102229.65;;;15.31;47.02
80397;BME280;69721;55.894;-3.052;2023-06-04T10:41:13;102231.14;;;16.18;46.18
80397;BME280;69721;55.894;-3.052;2023-06-04T10:43:33;102229.72;;;15.78;47.25
80397;BME280;69721;55.894;-3.052;2023-06-04T10:45:57;102226.83;;;15.36;49.64
80397;BME280;69721;55.894;-3.052;2023-06-04T10:48:22;102232.95;;;14.99;48.74
80397;BME280;69721;55.894;-3.052;2023-06-04T10:50:49;102231.80;;;14.79;48.38
80397;BME280;69721;55.894;-3.052;2023-06-04T10:53:13;102230.38;;;15.82;46.43
80397;BME280;69721;55.894;-3.052;2023-06-04T10:55:44;102231.28;;;15.54;47.27
80397;BME280;69721;55.894;-3.052;2023-06-04T10:58:04;102229.68;;;16.21;46.06
80397;BME280;69721;55.894;-3.052;2023-06-04T11:00:36;102234.12;;;15.06;47.39
80397;BME280;69721;55.894;-3.052;2023-06-04T11:02:55;102237.60;;;13.72;51.40
80397;BME280;69721;55.894;-3.052;2023-06-04T11:05:20;102233.50;;;15.36;48.40
80397;BME280;69721;55.894;-3.052;2023-06-04T11:07:49;102235.68;;;14.57;50.43
80397;BME280;69721;55.894;-3.052;2023-06-04T11:10:12;102236.35;;;15.51;48.10
80397;BME280;69721;55.894;-3.052;2023-06-04T11:12:42;102239.68;;;16.86;44.78
80397;BME280;69721;55.894;-3.052;2023-06-04T11:15:02;102239.25;;;15.47;47.03
80397;BME280;69721;55.894;-3.052;2023-06-04T11:17:27;102244.36;;;14.60;48.71
80397;BME280;69721;55.894;-3.052;2023-06-04T11:19:52;102242.76;;;14.94;49.67
80397;BME280;69721;55.894;-3.052;2023-06-04T11:22:18;102242.97;;;15.02;49.59
80397;BME280;69721;55.894;-3.052;2023-06-04T11:24:44;102240.07;;;14.79;48.77
80397;BME280;69721;55.894;-3.052;2023-06-04T11:27:09;102239.49;;;14.61;51.80
80397;BME280;69721;55.894;-3.052;2023-06-04T11:29:34;102240.54;;;14.84;50.23
80397;BME280;69721;55.894;-3.052;2023-06-04T11:32:00;102238.68;;;15.17;49.28
80397;BME280;69721;55.894;-3.052;2023-06-04T11:34:26;102237.34;;;15.24;49.03
80397;BME280;69721;55.894;-3.052;2023-06-04T11:36:50;102235.02;;;15.29;48.21
80397;BME280;69721;55.894;-3.052;2023-06-04T11:39:16;102233.86;;;14.44;50.14
80397;BME280;69721;55.894;-3.052;2023-06-04T11:41:42;102231.81;;;14.84;50.76
80397;BME280;69721;55.894;-3.052;2023-06-04T11:44:07;102234.74;;;13.98;51.40
80397;BME280;69721;55.894;-3.052;2023-06-04T11:46:33;102231.11;;;15.23;48.51
80397;BME280;69721;55.894;-3.052;2023-06-04T11:48:58;102234.29;;;15.36;48.20
80397;BME280;69721;55.894;-3.052;2023-06-04T11:51:23;102232.33;;;14.61;50.22
80397;BME280;69721;55.894;-3.052;2023-06-04T11:53:48;102233.19;;;15.34;48.56
80397;BME280;69721;55.894;-3.052;2023-06-04T11:56:14;102233.35;;;14.58;50.66
80397;BME280;69721;55.894;-3.052;2023-06-04T11:58:39;102238.86;;;15.06;49.11
80397;BME280;69721;55.894;-3.052;2023-06-04T12:01:04;102232.15;;;15.38;48.76
80397;BME280;69721;55.894;-3.052;2023-06-04T12:03:35;102239.37;;;15.08;50.00
80397;BME280;69721;55.894;-3.052;2023-06-04T12:05:55;102235.15;;;14.69;51.10
80397;BME280;69721;55.894;-3.052;2023-06-04T12:08:20;102235.04;;;15.97;47.90
80397;BME280;69721;55.894;-3.052;2023-06-04T12:10:45;102230.99;;;14.24;50.02
80397;BME280;69721;55.894;-3.052;2023-06-04T12:13:11;102232.75;;;13.96;52.00
80397;BME280;69721;55.894;-3.052;2023-06-04T12:15:36;102230.26;;;14.64;49.80
80397;BME280;69721;55.894;-3.052;2023-06-04T12:18:02;102228.45;;;14.31;50.38
80397;BME280;69721;55.894;-3.052;2023-06-04T12:20:35;102226.17;;;14.01;51.39
80397;BME280;69721;55.894;-3.052;2023-06-04T12:22:52;102221.07;;;15.37;50.95
80397;BME280;69721;55.894;-3.052;2023-06-04T12:25:25;102222.32;;;15.71;48.05
80397;BME280;69721;55.894;-3.052;2023-06-04T12:27:47;102221.18;;;16.31;47.13
80397;BME280;69721;55.894;-3.052;2023-06-04T12:30:08;102219.91;;;15.44;46.46